Tyringham, Massachusetts
Current Conditions -  °F | °C
As of 3:54 PM on Saturday 22 Nov 2014 (Local Time) from KPSF Reporting Station
Overcast Overcast  
Wind Chill: 30°   Ceiling: 5000
Heat Index: 36°   Visibility: 10mi
Dew Point: 10°   Wind: 8mph
Humidity: 34%   Direction: 200°SSW
Pressure: 30.1"   Gusts: NA
Location:  42.25°N, 73.2°W
Report Text: KPSF 222054Z AUTO 20007KT 10SM OVC050 02/M12 A3010 RMK AO2 RAB27E50UPB36E37 SLP207 P0000 60000 T00221122 56021 $
Loading
Personal Weather Stations






























Interactive Weather Map New forecast layout! Learn more

10-Day Weather Forecast

Advertisements
Track Severe Weather on mobile